Time;durP1;ratioP1;P1;durP2;ratioP2;P2;SDS_P1;SDS_P2;PMS_P1;PMS_P2;Temp;Humidity;BMP_temperature;BMP_pressure;BME280_temperature;BME280_humidity;BME280_pressure;Samples;Min_cycle;Max_cycle;Signal;HPM_P1;HPM_P2
2023/04/15 00:01:24;;;;;;;7.65;6.28;;;6.20;99.90;;;;;;4881451;28;89739;-32
2023/04/15 00:03:52;;;;;;;7.32;4.10;;;6.20;99.90;;;;;;4881851;28;90649;-35
2023/04/15 00:06:18;;;;;;;14.32;5.95;;;6.30;99.90;;;;;;4908487;22;89523;-33
2023/04/15 00:08:44;;;;;;;7.20;5.28;;;6.20;99.90;;;;;;4863468;28;90241;-31
2023/04/15 00:11:11;;;;;;;7.00;5.32;;;6.30;99.90;;;;;;4863393;28;90355;-34
2023/04/15 00:13:37;;;;;;;8.25;6.47;;;6.20;99.90;;;;;;4862895;28;89363;-31
2023/04/15 00:16:03;;;;;;;10.25;5.93;;;6.20;99.90;;;;;;4863233;28;88881;-33
2023/04/15 00:18:29;;;;;;;8.23;5.55;;;6.20;99.90;;;;;;4862606;28;87826;-32
2023/04/15 00:20:54;;;;;;;6.60;5.63;;;6.20;99.90;;;;;;4861393;28;90257;-35
2023/04/15 00:23:20;;;;;;;9.38;6.57;;;6.30;99.90;;;;;;4863622;28;89741;-33
2023/04/15 00:25:46;;;;;;;8.30;6.53;;;6.30;99.90;;;;;;4862424;28;89835;-31
2023/04/15 00:28:12;;;;;;;7.00;6.03;;;6.30;99.90;;;;;;4863475;28;90731;-40
2023/04/15 00:30:38;;;;;;;11.10;5.53;;;6.20;99.90;;;;;;4862620;28;90219;-34
2023/04/15 00:33:03;;;;;;;24.15;6.28;;;6.20;99.90;;;;;;4862603;28;89887;-31
2023/04/15 00:35:31;;;;;;;9.52;6.80;;;6.20;99.90;;;;;;4863356;28;89336;-33
2023/04/15 00:37:57;;;;;;;7.50;5.97;;;6.20;99.90;;;;;;4862963;28;88523;-34
2023/04/15 00:40:23;;;;;;;8.60;5.18;;;6.20;99.90;;;;;;4863079;28;90248;-32
2023/04/15 00:42:50;;;;;;;8.52;6.10;;;6.20;99.90;;;;;;4862819;28;89632;-31
2023/04/15 00:45:16;;;;;;;7.55;6.38;;;6.20;99.90;;;;;;4861177;28;89965;-35
2023/04/15 00:47:42;;;;;;;6.80;5.47;;;6.10;99.90;;;;;;4863321;28;90217;-31
2023/04/15 00:50:09;;;;;;;11.70;7.22;;;6.10;99.90;;;;;;4863167;28;90482;-31
2023/04/15 00:52:35;;;;;;;10.15;6.28;;;6.00;99.90;;;;;;4862012;28;91102;-34
2023/04/15 00:55:01;;;;;;;9.40;5.72;;;6.00;99.90;;;;;;4862319;28;90838;-30
2023/04/15 00:57:27;;;;;;;9.95;5.55;;;6.00;99.90;;;;;;4863004;28;89595;-32
2023/04/15 00:59:55;;;;;;;6.10;4.75;;;5.80;99.90;;;;;;4862267;28;90350;-31
2023/04/15 01:02:21;;;;;;;7.17;5.77;;;5.80;99.90;;;;;;4861793;28;89369;-34
2023/04/15 01:04:48;;;;;;;6.10;5.25;;;5.70;99.90;;;;;;4862355;28;89800;-32
2023/04/15 01:07:14;;;;;;;15.15;7.05;;;5.70;99.90;;;;;;4860170;28;87708;-34
2023/04/15 01:09:41;;;;;;;7.80;6.97;;;5.70;99.90;;;;;;4862908;28;89517;-31
2023/04/15 01:12:07;;;;;;;6.72;5.57;;;;;;;;;;4866550;28;90615;-31
2023/04/15 01:14:33;;;;;;;10.32;6.60;;;5.60;99.90;;;;;;4865632;28;89644;-31
2023/04/15 01:16:59;;;;;;;13.70;6.50;;;5.60;99.90;;;;;;4865536;28;89820;-30
2023/04/15 01:19:25;;;;;;;14.50;8.70;;;5.70;99.90;;;;;;4865457;28;90226;-33
2023/04/15 01:21:51;;;;;;;12.35;7.25;;;5.70;99.90;;;;;;4865019;28;89628;-31
2023/04/15 01:24:17;;;;;;;7.88;6.65;;;5.60;99.90;;;;;;4864593;28;89616;-34
2023/04/15 01:26:44;;;;;;;8.32;6.28;;;5.50;99.90;;;;;;4866282;28;89586;-34
2023/04/15 01:29:10;;;;;;;8.82;6.10;;;5.50;99.90;;;;;;4865716;28;90184;-34
2023/04/15 01:31:36;;;;;;;6.47;5.82;;;5.40;99.90;;;;;;4865536;28;89841;-31
2023/04/15 01:34:01;;;;;;;6.05;5.25;;;5.40;99.90;;;;;;4865286;28;90104;-33
2023/04/15 01:36:27;;;;;;;9.27;7.13;;;5.40;99.90;;;;;;4866492;28;89436;-35
2023/04/15 01:38:54;;;;;;;16.80;5.95;;;5.40;99.90;;;;;;4864712;28;90408;-32
2023/04/15 01:41:26;;;;;;;7.90;6.75;;;5.30;99.90;;;;;;4864633;28;90504;-36
2023/04/15 01:43:52;;;;;;;7.90;6.22;;;5.20;99.90;;;;;;4864267;28;89278;-35
2023/04/15 01:46:18;;;;;;;9.73;7.32;;;5.20;99.90;;;;;;4865572;28;88443;-33
2023/04/15 01:48:45;;;;;;;15.13;7.45;;;5.30;99.90;;;;;;4865687;28;89316;-30
2023/04/15 01:51:10;;;;;;;10.63;7.68;;;5.20;99.90;;;;;;4865493;28;89742;-30
2023/04/15 01:53:36;;;;;;;10.00;8.02;;;5.20;99.90;;;;;;4865687;28;89565;-34
2023/04/15 01:56:03;;;;;;;10.50;7.75;;;5.10;99.90;;;;;;4865122;28;89170;-32
2023/04/15 01:58:29;;;;;;;10.00;6.93;;;5.10;99.90;;;;;;4863536;28;89809;-32
2023/04/15 02:00:54;;;;;;;9.80;7.20;;;5.00;99.90;;;;;;4865132;28;89433;-32
2023/04/15 02:03:20;;;;;;;12.27;8.32;;;5.10;99.90;;;;;;4865034;28;89482;-32
2023/04/15 02:05:46;;;;;;;8.25;6.95;;;5.00;99.90;;;;;;4864633;28;89738;-33
2023/04/15 02:08:12;;;;;;;24.17;7.85;;;5.00;99.90;;;;;;4864879;28;89993;-31
2023/04/15 02:10:38;;;;;;;11.93;7.22;;;4.90;99.90;;;;;;4864884;28;89869;-35
2023/04/15 02:13:04;;;;;;;10.20;7.43;;;4.90;99.90;;;;;;4864975;28;88704;-34
2023/04/15 02:15:29;;;;;;;9.00;8.13;;;4.80;99.90;;;;;;4865764;28;87460;-33
2023/04/15 02:17:55;;;;;;;13.63;8.40;;;4.80;99.90;;;;;;4864562;28;91167;-32
2023/04/15 02:20:22;;;;;;;10.05;8.07;;;4.80;99.90;;;;;;4864638;28;89997;-33
2023/04/15 02:22:48;;;;;;;16.27;7.97;;;4.90;99.90;;;;;;4864128;28;89060;-31
2023/04/15 02:25:15;;;;;;;10.68;8.00;;;4.80;99.90;;;;;;4866062;28;89184;-32
2023/04/15 02:27:42;;;;;;;9.80;7.07;;;4.80;99.90;;;;;;4864945;28;92133;-30
2023/04/15 02:30:08;;;;;;;11.40;8.15;;;4.80;99.90;;;;;;4864553;28;90636;-34
2023/04/15 02:32:34;;;;;;;11.80;7.68;;;4.80;99.90;;;;;;4865049;28;90094;-33
2023/04/15 02:35:04;;;;;;;8.35;6.60;;;4.80;99.90;;;;;;4864799;28;88690;-31
2023/04/15 02:37:30;;;;;;;11.85;8.45;;;4.80;99.90;;;;;;4864786;28;89080;-34
2023/04/15 02:39:56;;;;;;;10.02;7.93;;;4.70;99.90;;;;;;4864943;28;89498;-32
2023/04/15 02:42:22;;;;;;;10.13;8.98;;;4.70;99.90;;;;;;4864030;28;88910;-34
2023/04/15 02:44:47;;;;;;;9.30;6.85;;;4.70;99.90;;;;;;4864463;28;89599;-31
2023/04/15 02:47:14;;;;;;;10.82;6.88;;;4.60;99.90;;;;;;4864596;28;90180;-30
2023/04/15 02:49:40;;;;;;;8.00;7.20;;;4.60;99.90;;;;;;4865311;28;89813;-30
2023/04/15 02:52:06;;;;;;;10.52;8.23;;;4.60;99.90;;;;;;4864004;28;90087;-34
2023/04/15 02:54:32;;;;;;;14.20;7.78;;;4.60;99.90;;;;;;4864133;28;89842;-33
2023/04/15 02:56:58;;;;;;;8.00;6.75;;;4.50;99.90;;;;;;4864079;28;90321;-31
2023/04/15 02:59:24;;;;;;;10.65;7.15;;;4.50;99.90;;;;;;4864162;28;88593;-35
2023/04/15 03:01:50;;;;;;;13.68;8.38;;;4.50;99.90;;;;;;4864271;28;89916;-33
2023/04/15 03:04:16;;;;;;;14.57;8.43;;;4.50;99.90;;;;;;4864825;28;88794;-29
2023/04/15 03:06:41;;;;;;;12.13;6.95;;;4.50;99.90;;;;;;4863763;28;90181;-33
2023/04/15 03:09:07;;;;;;;8.25;6.15;;;4.40;99.90;;;;;;4863819;28;89945;-34
2023/04/15 03:11:34;;;;;;;9.70;7.82;;;4.40;99.90;;;;;;4864607;28;89315;-32
2023/04/15 03:13:59;;;;;;;9.90;7.22;;;4.30;99.90;;;;;;4864704;28;89139;-30
2023/04/15 03:16:25;;;;;;;14.70;8.32;;;4.30;99.90;;;;;;4863664;28;89152;-32
2023/04/15 03:18:51;;;;;;;14.95;7.25;;;4.30;99.90;;;;;;4863682;28;90307;-33
2023/04/15 03:21:16;;;;;;;8.82;7.88;;;4.30;99.90;;;;;;4863689;28;91033;-34
2023/04/15 03:23:42;;;;;;;11.30;7.38;;;4.30;99.90;;;;;;4863928;28;89748;-32
2023/04/15 03:26:08;;;;;;;11.93;7.93;;;4.20;99.90;;;;;;4864218;28;90223;-31
2023/04/15 03:28:33;;;;;;;11.35;8.35;;;4.20;99.90;;;;;;4863343;28;89823;-30
2023/04/15 03:30:59;;;;;;;10.88;7.70;;;4.20;99.90;;;;;;4863924;28;89811;-31
2023/04/15 03:33:25;;;;;;;8.90;7.20;;;4.10;99.90;;;;;;4863062;28;87827;-31
2023/04/15 03:35:51;;;;;;;8.13;6.80;;;4.10;99.90;;;;;;4863959;28;90270;-30
2023/04/15 03:38:17;;;;;;;9.23;7.88;;;4.10;99.90;;;;;;4864210;28;89294;-30
2023/04/15 03:40:45;;;;;;;10.95;7.97;;;4.10;99.90;;;;;;4862988;28;89344;-31
2023/04/15 03:43:11;;;;;;;10.75;8.80;;;4.10;99.90;;;;;;4863365;28;90694;-35
2023/04/15 03:45:36;;;;;;;10.88;8.27;;;4.10;99.90;;;;;;4864233;28;92041;-31
2023/04/15 03:48:02;;;;;;;9.85;7.93;;;4.30;99.90;;;;;;4863410;28;89068;-32
2023/04/15 03:50:28;;;;;;;10.25;8.43;;;4.20;99.90;;;;;;4864711;28;89456;-33
2023/04/15 03:52:53;;;;;;;12.40;7.47;;;4.20;99.90;;;;;;4863359;28;88810;-34
2023/04/15 03:55:19;;;;;;;10.77;9.48;;;4.30;99.90;;;;;;4863730;28;90834;-32
2023/04/15 03:57:45;;;;;;;14.60;8.65;;;3.90;99.90;;;;;;4863637;28;89303;-31
2023/04/15 04:00:11;;;;;;;11.48;8.68;;;4.10;99.90;;;;;;4863280;28;89545;-36
2023/04/15 04:02:37;;;;;;;12.45;8.00;;;4.10;99.90;;;;;;4864189;28;89072;-30
2023/04/15 04:05:03;;;;;;;9.50;8.52;;;4.10;99.90;;;;;;4863048;28;90484;-32
2023/04/15 04:07:28;;;;;;;14.32;8.93;;;4.10;99.90;;;;;;4863511;28;91471;-31
2023/04/15 04:09:56;;;;;;;12.55;8.60;;;4.10;99.90;;;;;;4862979;28;90062;-33
2023/04/15 04:12:22;;;;;;;12.18;8.23;;;4.10;99.90;;;;;;4863654;28;88330;-30
2023/04/15 04:14:47;;;;;;;14.70;9.75;;;4.40;99.90;;;;;;4862970;28;90202;-33
2023/04/15 04:17:13;;;;;;;12.85;9.00;;;4.00;99.90;;;;;;4863043;28;89689;-35
2023/04/15 04:19:38;;;;;;;12.63;9.52;;;4.00;99.90;;;;;;4863047;28;89695;-34
2023/04/15 04:22:04;;;;;;;15.48;9.93;;;4.00;99.90;;;;;;4863780;28;88923;-32
2023/04/15 04:24:30;;;;;;;13.75;9.75;;;4.30;99.90;;;;;;4862729;28;90269;-32
2023/04/15 04:26:56;;;;;;;14.88;9.50;;;4.10;99.90;;;;;;4863129;28;89639;-31
2023/04/15 04:29:22;;;;;;;14.07;9.25;;;4.10;99.90;;;;;;4862726;28;88573;-29
2023/04/15 04:31:48;;;;;;;11.63;9.65;;;4.20;99.90;;;;;;4862682;28;89711;-35
2023/04/15 04:34:14;;;;;;;14.10;11.40;;;4.10;99.90;;;;;;4862521;28;89850;-30
2023/04/15 04:36:40;;;;;;;13.70;9.93;;;4.20;99.90;;;;;;4862585;28;89568;-32
2023/04/15 04:39:06;;;;;;;13.95;9.30;;;4.30;99.90;;;;;;4862338;28;89295;-31
2023/04/15 04:41:31;;;;;;;25.77;10.73;;;4.10;99.90;;;;;;4863229;28;89425;-31
2023/04/15 04:43:57;;;;;;;16.05;10.10;;;4.10;99.90;;;;;;4861904;28;90521;-36
2023/04/15 04:46:22;;;;;;;17.13;9.60;;;4.10;99.90;;;;;;4862682;28;89256;-34
2023/04/15 04:48:48;;;;;;;15.15;10.73;;;4.00;99.90;;;;;;4861767;28;90076;-36
2023/04/15 04:51:14;;;;;;;13.18;10.90;;;4.10;99.90;;;;;;4862169;28;89342;-30
2023/04/15 04:53:41;;;;;;;14.85;10.65;;;3.90;99.90;;;;;;4861939;28;91342;-33
2023/04/15 04:56:07;;;;;;;16.30;11.50;;;4.00;99.90;;;;;;4862101;28;90440;-31
2023/04/15 04:58:33;;;;;;;19.17;11.57;;;4.00;99.90;;;;;;4861883;28;89870;-32
2023/04/15 05:00:58;;;;;;;12.60;10.90;;;4.10;99.90;;;;;;4861671;28;90547;-33
2023/04/15 05:03:24;;;;;;;16.17;13.60;;;4.00;99.90;;;;;;4861521;28;89623;-31
2023/04/15 05:05:50;;;;;;;17.20;12.75;;;4.10;99.90;;;;;;4861021;28;88476;-30
2023/04/15 05:08:16;;;;;;;18.85;11.63;;;4.10;99.90;;;;;;4861779;28;89579;-34
2023/04/15 05:10:41;;;;;;;16.73;11.30;;;4.10;99.90;;;;;;4862279;28;90011;-33
2023/04/15 05:13:07;;;;;;;19.10;12.20;;;4.10;99.90;;;;;;4861468;28;89808;-33
2023/04/15 05:15:33;;;;;;;18.70;13.00;;;4.20;99.90;;;;;;4862375;28;90302;-31
2023/04/15 05:17:59;;;;;;;22.75;11.70;;;4.20;99.90;;;;;;4861399;28;89980;-31
2023/04/15 05:20:25;;;;;;;17.75;11.43;;;4.10;99.90;;;;;;4862136;28;90527;-36
2023/04/15 05:22:50;;;;;;;16.38;10.95;;;4.10;99.90;;;;;;4861488;28;89885;-31
2023/04/15 05:25:16;;;;;;;14.75;10.73;;;4.20;99.90;;;;;;4861646;28;89859;-32
2023/04/15 05:27:42;;;;;;;15.80;10.68;;;4.10;99.90;;;;;;4861588;28;89807;-33
2023/04/15 05:30:08;;;;;;;15.50;10.52;;;4.20;99.90;;;;;;4861495;28;89060;-30
2023/04/15 05:32:34;;;;;;;17.70;12.63;;;4.20;99.90;;;;;;4862088;28;90170;-32
2023/04/15 05:34:59;;;;;;;17.38;12.90;;;4.20;99.90;;;;;;4862025;28;89813;-31
2023/04/15 05:37:25;;;;;;;14.40;11.65;;;4.30;99.90;;;;;;4861442;28;89011;-34
2023/04/15 05:39:51;;;;;;;15.88;11.05;;;4.30;99.90;;;;;;4861310;28;89929;-31
2023/04/15 05:42:17;;;;;;;17.38;13.25;;;4.50;99.90;;;;;;4861391;28;90371;-30
2023/04/15 05:44:42;;;;;;;16.25;12.45;;;4.50;99.90;;;;;;4861372;28;90748;-35
2023/04/15 05:47:09;;;;;;;19.50;12.90;;;4.50;99.90;;;;;;4861157;28;90307;-30
2023/04/15 05:49:35;;;;;;;17.58;11.80;;;4.60;99.90;;;;;;4861323;28;89989;-32
2023/04/15 05:52:00;;;;;;;20.38;14.10;;;4.60;99.90;;;;;;4861442;28;89966;-31
2023/04/15 05:54:26;;;;;;;24.05;13.32;;;4.70;99.90;;;;;;4861164;28;88944;-31
2023/04/15 05:56:52;;;;;;;19.38;12.63;;;4.70;99.90;;;;;;4863424;28;89533;-33
2023/04/15 05:59:18;;;;;;;23.20;14.13;;;4.80;99.90;;;;;;4864834;28;89295;-33
2023/04/15 06:01:44;;;;;;;20.48;14.13;;;5.00;99.90;;;;;;4863951;28;90451;-31
2023/04/15 06:04:10;;;;;;;21.48;13.20;;;5.10;99.90;;;;;;4865087;28;89818;-30
2023/04/15 06:06:37;;;;;;;20.42;12.95;;;5.20;99.90;;;;;;4863768;28;89822;-31
2023/04/15 06:09:03;;;;;;;17.13;13.00;;;5.30;99.90;;;;;;4863533;28;90858;-36
2023/04/15 06:11:29;;;;;;;16.70;13.30;;;5.40;99.90;;;;;;4865150;28;89719;-31
2023/04/15 06:13:55;;;;;;;20.30;12.93;;;5.40;99.90;;;;;;4863799;28;90985;-31
2023/04/15 06:16:21;;;;;;;21.15;14.45;;;5.50;99.90;;;;;;4864686;28;89368;-33
2023/04/15 06:18:47;;;;;;;18.23;13.23;;;5.50;99.90;;;;;;4864747;28;91504;-29
2023/04/15 06:21:13;;;;;;;20.50;14.38;;;5.60;99.90;;;;;;4864036;28;90170;-35
2023/04/15 06:23:40;;;;;;;19.73;13.48;;;5.70;99.90;;;;;;4864156;28;88786;-33
2023/04/15 06:26:06;;;;;;;18.45;12.57;;;5.70;99.90;;;;;;4863609;28;90358;-31
2023/04/15 06:28:31;;;;;;;22.58;13.35;;;5.70;99.90;;;;;;4863854;28;88868;-34
2023/04/15 06:30:57;;;;;;;18.67;11.15;;;5.90;99.90;;;;;;4864249;28;90118;-31
2023/04/15 06:33:22;;;;;;;18.27;14.35;;;5.80;99.90;;;;;;4863588;28;89951;-31
2023/04/15 06:35:49;;;;;;;14.70;12.50;;;5.90;99.90;;;;;;4863377;28;90770;-33
2023/04/15 06:38:14;;;;;;;17.98;13.48;;;6.10;99.90;;;;;;4863785;28;88863;-32
2023/04/15 06:40:41;;;;;;;17.55;13.43;;;5.90;99.90;;;;;;4864209;28;89401;-29
2023/04/15 06:43:06;;;;;;;22.20;13.45;;;6.00;99.90;;;;;;4864189;28;90525;-31
2023/04/15 06:45:32;;;;;;;19.05;12.05;;;6.00;99.90;;;;;;4863406;28;89684;-33
2023/04/15 06:47:58;;;;;;;16.83;12.55;;;6.20;99.90;;;;;;4864039;28;88782;-35
2023/04/15 06:50:23;;;;;;;16.05;11.02;;;6.20;99.90;;;;;;4863409;28;89155;-32
2023/04/15 06:52:49;;;;;;;17.40;13.73;;;6.40;99.90;;;;;;4864228;28;89713;-32
2023/04/15 06:55:15;;;;;;;13.70;10.00;;;6.50;99.90;;;;;;4864328;28;89814;-31
2023/04/15 06:57:40;;;;;;;17.40;12.48;;;6.70;99.90;;;;;;4863550;28;90029;-31
2023/04/15 07:00:07;;;;;;;13.40;10.00;;;6.80;99.90;;;;;;4864065;28;90385;-33
2023/04/15 07:02:33;;;;;;;15.35;10.15;;;6.90;99.90;;;;;;4863279;28;90013;-31
2023/04/15 07:04:58;;;;;;;13.27;10.05;;;7.10;99.90;;;;;;4863448;28;89621;-30
2023/04/15 07:07:24;;;;;;;16.40;11.02;;;7.10;99.90;;;;;;4863520;28;88092;-31
2023/04/15 07:09:51;;;;;;;13.00;7.53;;;7.30;99.90;;;;;;4863190;28;90775;-31
2023/04/15 07:12:16;;;;;;;15.70;6.60;;;7.20;99.90;;;;;;4863143;28;89942;-34
2023/04/15 07:14:42;;;;;;;12.65;9.35;;;7.40;99.90;;;;;;4863362;28;89214;-33
2023/04/15 07:17:08;;;;;;;14.75;8.07;;;7.40;99.90;;;;;;4864832;28;88639;-30
2023/04/15 07:19:34;;;;;;;12.38;10.20;;;7.50;99.90;;;;;;4863997;28;90081;-34
2023/04/15 07:22:00;;;;;;;7.80;5.35;;;7.60;99.90;;;;;;4862750;28;89591;-29
2023/04/15 07:24:25;;;;;;;9.40;6.82;;;7.70;99.90;;;;;;4864230;28;90373;-35
2023/04/15 07:26:55;;;;;;;13.38;6.03;;;7.70;99.90;;;;;;4864286;28;89240;-33
2023/04/15 07:29:21;;;;;;;9.80;7.03;;;7.70;99.90;;;;;;4863546;28;90038;-30
2023/04/15 07:31:46;;;;;;;12.20;7.18;;;7.80;99.90;;;;;;4862628;28;91084;-32
2023/04/15 07:34:12;;;;;;;15.57;8.15;;;7.80;99.90;;;;;;4863228;28;89981;-34
2023/04/15 07:36:37;;;;;;;12.32;8.45;;;7.90;99.90;;;;;;4863894;28;89702;-33
2023/04/15 07:39:03;;;;;;;12.15;8.15;;;7.90;99.90;;;;;;4870063;28;90436;-31
2023/04/15 07:41:29;;;;;;;14.82;9.75;;;8.00;99.90;;;;;;4861060;28;88495;-31
2023/04/15 07:43:55;;;;;;;11.95;7.53;;;8.00;99.90;;;;;;4861509;28;90185;-32
2023/04/15 07:46:23;;;;;;;14.63;9.68;;;8.10;99.90;;;;;;4861464;28;90784;-31
2023/04/15 07:48:48;;;;;;;10.03;6.60;;;8.10;99.90;;;;;;4860151;28;89803;-33
2023/04/15 07:51:14;;;;;;;11.82;9.20;;;8.20;99.90;;;;;;4861618;28;89490;-34
2023/04/15 07:53:39;;;;;;;9.07;7.80;;;8.30;99.90;;;;;;4861663;28;89772;-35
2023/04/15 07:56:05;;;;;;;13.75;9.88;;;8.40;99.90;;;;;;4862120;28;88570;-32
2023/04/15 07:58:31;;;;;;;11.95;8.98;;;8.40;99.90;;;;;;4861550;28;91597;-32
2023/04/15 08:00:56;;;;;;;9.55;7.63;;;8.50;99.90;;;;;;4861679;28;89295;-34
2023/04/15 08:03:22;;;;;;;14.65;9.30;;;8.60;99.90;;;;;;4861170;28;91195;-35
2023/04/15 08:05:49;;;;;;;10.60;8.13;;;8.60;99.90;;;;;;4861690;28;88649;-34
2023/04/15 08:08:14;;;;;;;12.60;8.20;;;8.60;99.90;;;;;;4861156;28;90245;-31
2023/04/15 08:10:40;;;;;;;13.05;7.18;;;8.70;99.90;;;;;;4861114;28;91556;-33
2023/04/15 08:13:06;;;;;;;10.55;6.90;;;8.60;99.90;;;;;;4861022;28;91107;-31
2023/04/15 08:15:32;;;;;;;8.32;6.50;;;8.70;99.90;;;;;;4862105;28;89531;-31
2023/04/15 08:17:59;;;;;;;7.05;4.55;;;8.70;99.90;;;;;;4860079;28;90297;-33
2023/04/15 08:20:25;;;;;;;6.75;4.85;;;8.80;99.90;;;;;;4861362;28;89285;-32
2023/04/15 08:22:51;;;;;;;7.90;4.82;;;8.80;99.90;;;;;;4861325;28;89515;-31
2023/04/15 08:25:18;;;;;;;7.00;4.88;;;8.90;99.90;;;;;;4860978;28;88460;-31
2023/04/15 08:27:44;;;;;;;7.30;5.93;;;8.90;99.90;;;;;;4861064;28;90307;-30
2023/04/15 08:30:10;;;;;;;6.40;4.50;;;8.90;99.90;;;;;;4860620;28;89798;-33
2023/04/15 08:32:36;;;;;;;5.80;4.78;;;9.00;99.90;;;;;;4861331;28;89379;-31
2023/04/15 08:35:02;;;;;;;6.93;5.28;;;9.10;99.90;;;;;;4861058;28;89581;-32
2023/04/15 08:37:28;;;;;;;7.60;4.38;;;9.10;99.90;;;;;;4860364;28;90304;-30
2023/04/15 08:39:53;;;;;;;8.40;4.80;;;9.30;99.90;;;;;;4860701;28;89177;-35
2023/04/15 08:42:26;;;;;;;6.63;4.85;;;9.30;99.90;;;;;;4860763;28;90030;-34
2023/04/15 08:44:52;;;;;;;6.28;4.13;;;9.30;99.90;;;;;;4861510;28;88157;-31
2023/04/15 08:47:23;;;;;;;6.90;4.90;;;9.20;99.90;;;;;;4861179;28;90554;-33
2023/04/15 08:49:53;;;;;;;7.63;5.43;;;9.30;99.90;;;;;;4861000;28;91269;-32
2023/04/15 08:52:19;;;;;;;7.25;4.60;;;9.20;99.90;;;;;;4861074;28;89025;-31
2023/04/15 08:54:45;;;;;;;5.25;4.70;;;9.20;99.90;;;;;;4860190;28;89635;-31
2023/04/15 08:57:11;;;;;;;7.45;4.57;;;9.20;99.90;;;;;;4861351;28;91146;-30
2023/04/15 08:59:37;;;;;;;5.43;4.03;;;9.20;99.90;;;;;;4860318;28;91171;-34
2023/04/15 09:02:03;;;;;;;4.80;3.33;;;9.30;99.90;;;;;;4860142;28;90032;-34
2023/04/15 09:04:29;;;;;;;3.92;3.53;;;9.20;99.90;;;;;;4860779;28;88336;-33
2023/04/15 09:06:56;;;;;;;4.72;3.60;;;9.20;99.90;;;;;;4859623;28;91076;-34
2023/04/15 09:09:21;;;;;;;4.53;4.03;;;9.30;99.90;;;;;;4860805;28;89946;-31
2023/04/15 09:11:48;;;;;;;6.00;4.68;;;9.30;99.90;;;;;;4860578;28;89200;-30
2023/04/15 09:14:14;;;;;;;6.05;4.38;;;9.30;99.90;;;;;;4860108;28;89223;-33
2023/04/15 09:16:59;;;;;;;4.50;3.78;;;9.30;99.90;;;;;;4860593;28;91163;-31
2023/04/15 09:19:26;;;;;;;6.32;4.05;;;9.30;99.90;;;;;;4860694;28;90119;-30
2023/04/15 09:21:56;;;;;;;5.00;3.67;;;9.30;99.90;;;;;;4860658;28;89820;-30
2023/04/15 09:24:22;;;;;;;5.18;4.68;;;9.20;99.90;;;;;;4859825;28;89955;-34
2023/04/15 09:26:52;;;;;;;5.10;4.47;;;9.20;99.90;;;;;;4860574;28;90839;-31
2023/04/15 09:29:18;;;;;;;10.48;4.30;;;9.20;99.90;;;;;;4859231;28;89678;-34
2023/04/15 09:31:43;;;;;;;3.85;3.53;;;9.20;99.90;;;;;;4862517;28;89809;-34
2023/04/15 09:34:09;;;;;;;5.43;4.95;;;9.30;99.90;;;;;;4863841;28;88390;-32
2023/04/15 09:36:52;;;;;;;4.75;4.00;;;9.20;99.90;;;;;;4863743;28;90785;-33
2023/04/15 09:39:17;;;;;;;5.88;4.53;;;9.20;99.90;;;;;;4862872;28;89371;-33
2023/04/15 09:41:43;;;;;;;4.63;3.45;;;9.20;99.90;;;;;;4863784;28;90206;-30
2023/04/15 09:44:22;;;;;;;6.22;3.47;;;9.20;99.90;;;;;;4863808;28;88394;-31
2023/04/15 09:46:48;;;;;;;4.85;3.78;;;9.30;99.90;;;;;;4862912;28;90633;-33
2023/04/15 09:49:14;;;;;;;5.13;3.47;;;9.30;99.90;;;;;;4861549;28;90302;-34
2023/04/15 09:51:40;;;;;;;5.45;3.78;;;9.40;99.90;;;;;;4862656;28;90376;-32
2023/04/15 09:54:06;;;;;;;6.50;3.70;;;9.30;99.90;;;;;;4862976;28;89013;-35
2023/04/15 09:56:37;;;;;;;3.72;3.08;;;9.40;99.90;;;;;;4863667;28;89668;-30
2023/04/15 09:59:04;;;;;;;4.32;3.63;;;9.40;99.90;;;;;;4863463;28;88601;-34
2023/04/15 10:01:30;;;;;;;4.50;3.35;;;9.40;99.90;;;;;;4863910;28;89251;-34
2023/04/15 10:03:56;;;;;;;6.47;3.13;;;9.40;99.90;;;;;;4863432;28;89931;-31
2023/04/15 10:06:24;;;;;;;4.50;3.08;;;9.30;99.90;;;;;;4863506;28;88436;-34
2023/04/15 10:08:50;;;;;;;3.63;3.33;;;9.30;99.90;;;;;;4863218;28;90041;-31
2023/04/15 10:11:18;;;;;;;3.80;2.83;;;9.40;99.90;;;;;;4862841;28;89135;-34
2023/04/15 10:13:45;;;;;;;9.43;4.23;;;9.50;99.90;;;;;;4867135;28;89936;-35
2023/04/15 10:16:18;;;;;;;4.45;2.83;;;9.40;99.90;;;;;;4875916;28;90270;-34
2023/04/15 10:18:46;;;;;;;4.32;2.85;;;9.60;99.90;;;;;;4864228;28;89432;-32
2023/04/15 10:21:17;;;;;;;3.83;3.53;;;9.60;99.90;;;;;;4863359;28;89543;-34
2023/04/15 10:23:44;;;;;;;4.82;2.95;;;9.60;99.90;;;;;;4870455;28;89639;-32
2023/04/15 10:26:13;;;;;;;5.28;3.30;;;9.60;99.90;;;;;;4862759;28;90294;-34
2023/04/15 10:28:39;;;;;;;4.07;2.88;;;9.60;99.90;;;;;;4862989;28;90367;-34
2023/04/15 10:31:06;;;;;;;4.85;2.80;;;9.60;99.90;;;;;;4862916;28;89627;-33
2023/04/15 10:33:33;;;;;;;6.63;4.57;;;9.70;99.90;;;;;;4862380;28;89759;-32
2023/04/15 10:36:00;;;;;;;10.17;3.30;;;9.60;99.90;;;;;;4862579;28;89317;-31
2023/04/15 10:38:36;;;;;;;4.72;3.20;;;9.60;99.90;;;;;;4864288;28;90502;-32
2023/04/15 10:41:20;;;;;;;5.03;3.67;;;9.60;99.90;;;;;;4861273;28;90524;-33
2023/04/15 10:43:50;;;;;;;5.03;3.17;;;9.60;99.90;;;;;;4862416;28;89514;-34
2023/04/15 10:46:21;;;;;;;3.45;3.15;;;9.60;99.90;;;;;;4863180;28;90342;-31
2023/04/15 10:48:53;;;;;;;5.03;3.65;;;9.60;99.90;;;;;;4861489;28;89933;-31
2023/04/15 10:51:29;;;;;;;3.42;3.13;;;9.60;99.90;;;;;;4861794;28;90669;-32
2023/04/15 10:53:57;;;;;;;4.93;3.33;;;9.50;99.90;;;;;;4861754;28;89140;-33
2023/04/15 10:56:23;;;;;;;7.90;3.95;;;9.50;99.90;;;;;;4863018;28;88848;-33
2023/04/15 10:58:48;;;;;;;3.90;2.65;;;9.50;99.90;;;;;;4861869;28;89770;-32
2023/04/15 11:01:14;;;;;;;3.65;3.35;;;9.50;99.90;;;;;;4862214;28;89696;-35
2023/04/15 11:03:42;;;;;;;8.38;3.65;;;9.60;99.90;;;;;;4861026;28;90238;-33
2023/04/15 11:06:08;;;;;;;3.83;2.83;;;9.60;99.90;;;;;;4861755;28;90807;-33
2023/04/15 11:08:58;;;;;;;3.90;2.53;;;9.70;99.90;;;;;;4862201;28;89650;-35
2023/04/15 11:12:01;;;;;;;2.55;2.35;;;9.80;99.90;;;;;;4861908;28;90322;-34
2023/04/15 11:14:27;;;;;;;3.25;2.05;;;9.70;99.90;;;;;;4862032;28;87732;-32
2023/04/15 11:16:53;;;;;;;6.03;3.25;;;9.70;99.90;;;;;;4861766;28;90288;-34
2023/04/15 11:19:18;;;;;;;5.38;2.67;;;9.70;99.90;;;;;;4862085;28;89834;-32
2023/04/15 11:21:44;;;;;;;2.40;2.20;;;9.60;99.90;;;;;;4862114;28;91433;-32
2023/04/15 11:24:09;;;;;;;5.53;2.55;;;9.70;99.90;;;;;;4862246;28;90231;-33
2023/04/15 11:26:35;;;;;;;2.95;2.60;;;9.70;99.90;;;;;;4862904;28;91013;-30
2023/04/15 11:29:01;;;;;;;3.85;3.47;;;9.80;99.90;;;;;;4860491;28;90401;-31
2023/04/15 11:31:27;;;;;;;4.88;3.35;;;9.80;99.90;;;;;;4861678;28;90740;-31
2023/04/15 11:34:01;;;;;;;3.08;2.40;;;9.80;99.90;;;;;;4861756;28;88084;-34
2023/04/15 11:36:28;;;;;;;6.38;2.47;;;9.80;99.90;;;;;;4851772;28;89907;-33
2023/04/15 11:38:55;;;;;;;2.75;2.53;;;9.90;99.90;;;;;;4861567;28;89083;-34
2023/04/15 11:41:21;;;;;;;2.42;2.00;;;9.90;99.90;;;;;;4861797;28;89110;-30
2023/04/15 11:43:47;;;;;;;5.88;2.08;;;9.90;99.90;;;;;;4861290;28;88933;-33
2023/04/15 11:46:13;;;;;;;3.72;2.78;;;9.80;99.90;;;;;;4861938;28;90834;-32
2023/04/15 11:48:42;;;;;;;3.97;2.45;;;9.90;99.90;;;;;;4859563;28;91280;-35
2023/04/15 11:51:08;;;;;;;2.58;2.38;;;10.00;99.90;;;;;;4861199;28;89414;-33
2023/04/15 11:53:46;;;;;;;4.85;2.92;;;10.00;99.90;;;;;;4860858;28;89948;-33
2023/04/15 11:56:20;;;;;;;2.28;2.08;;;10.00;99.90;;;;;;4862119;28;90226;-30
2023/04/15 11:58:47;;;;;;;2.33;2.17;;;9.90;99.90;;;;;;4860459;28;89697;-34
2023/04/15 12:01:13;;;;;;;2.97;2.08;;;10.00;99.90;;;;;;4861948;28;89090;-32
2023/04/15 12:03:44;;;;;;;6.60;3.58;;;10.00;99.90;;;;;;4861172;28;89256;-32
2023/04/15 12:06:18;;;;;;;3.25;2.20;;;9.90;99.90;;;;;;4897561;23;90790;-32
2023/04/15 12:09:00;;;;;;;4.43;2.95;;;9.90;99.90;;;;;;4880385;28;90574;-34
2023/04/15 12:11:26;;;;;;;6.65;3.47;;;9.90;99.90;;;;;;4880830;28;89951;-34
2023/04/15 12:13:55;;;;;;;3.47;3.08;;;9.90;99.90;;;;;;4880826;28;89018;-34
2023/04/15 12:16:22;;;;;;;7.18;3.33;;;9.80;99.90;;;;;;4880971;28;89887;-32
2023/04/15 12:18:52;;;;;;;4.55;3.83;;;9.80;99.90;;;;;;4879596;28;90619;-32
2023/04/15 12:21:19;;;;;;;6.38;4.05;;;9.70;99.90;;;;;;4880617;28;89309;-29
2023/04/15 12:23:52;;;;;;;5.82;3.83;;;9.70;99.90;;;;;;4880151;28;88651;-30
2023/04/15 12:26:25;;;;;;;7.18;3.53;;;9.70;99.90;;;;;;4879359;28;90362;-34
2023/04/15 12:28:55;;;;;;;3.58;2.72;;;9.60;99.90;;;;;;4879948;28;90214;-34
2023/04/15 12:31:20;;;;;;;4.90;3.03;;;9.60;99.90;;;;;;4880036;28;89416;-33
2023/04/15 12:33:49;;;;;;;8.32;3.17;;;9.60;99.90;;;;;;4880433;28;89404;-32
2023/04/15 12:36:15;;;;;;;7.57;3.45;;;9.70;99.90;;;;;;4880795;28;90675;-30
2023/04/15 12:38:41;;;;;;;4.80;2.85;;;9.60;99.90;;;;;;4880049;28;89624;-32
2023/04/15 12:41:07;;;;;;;6.72;3.90;;;9.60;99.90;;;;;;4879075;28;89779;-35
2023/04/15 12:43:32;;;;;;;5.80;2.53;;;9.50;99.90;;;;;;4879181;28;88071;-34
2023/04/15 12:45:58;;;;;;;4.93;3.58;;;9.50;99.90;;;;;;4879569;28;90092;-35
2023/04/15 12:48:24;;;;;;;4.53;3.38;;;9.50;99.90;;;;;;4879583;28;89454;-32